createdAt,value
2023-04-09T00:00:05.663Z,414.00
2023-04-09T00:01:05.715Z,416.00
2023-04-09T00:02:05.752Z,418.00
2023-04-09T00:03:05.883Z,419.00
2023-04-09T00:04:06.050Z,419.00
2023-04-09T00:05:05.884Z,421.00
2023-04-09T00:06:05.960Z,422.00
2023-04-09T00:07:05.968Z,420.00
2023-04-09T00:08:06.043Z,420.00
2023-04-09T00:09:06.067Z,421.00
2023-04-09T00:10:06.181Z,423.00
2023-04-09T00:11:06.154Z,420.00
2023-04-09T00:12:06.232Z,419.00
2023-04-09T00:13:06.296Z,418.00
2023-04-09T00:14:06.521Z,418.00
2023-04-09T00:15:06.405Z,417.00
2023-04-09T00:16:06.446Z,416.00
2023-04-09T00:17:06.413Z,415.00
2023-04-09T00:18:07.228Z,414.00
2023-04-09T00:19:06.584Z,416.00
2023-04-09T00:20:06.636Z,416.00
2023-04-09T00:21:06.612Z,415.00
2023-04-09T00:22:06.673Z,415.00
2023-04-09T00:23:07.193Z,412.00
2023-04-09T00:24:06.751Z,413.00
2023-04-09T00:25:06.811Z,414.00
2023-04-09T00:26:06.829Z,413.00
2023-04-09T00:27:06.850Z,414.00
2023-04-09T00:28:06.890Z,415.00
2023-04-09T00:29:07.001Z,413.00
2023-04-09T00:30:07.025Z,415.00
2023-04-09T00:31:07.095Z,417.00
2023-04-09T00:32:08.885Z,417.00
2023-04-09T00:33:07.254Z,418.00
2023-04-09T00:34:07.240Z,420.00
2023-04-09T00:35:07.363Z,419.00
2023-04-09T00:36:07.399Z,418.00
2023-04-09T00:37:07.407Z,417.00
2023-04-09T00:38:07.486Z,415.00
2023-04-09T00:39:08.230Z,413.00
2023-04-09T00:40:07.620Z,411.00
2023-04-09T00:41:07.585Z,410.00
2023-04-09T00:42:07.715Z,413.00
2023-04-09T00:43:07.666Z,413.00
2023-04-09T00:44:07.761Z,413.00
2023-04-09T00:45:07.760Z,415.00
2023-04-09T00:46:07.848Z,414.00
2023-04-09T00:47:07.995Z,416.00
2023-04-09T00:48:07.910Z,416.00
2023-04-09T00:49:07.930Z,418.00
2023-04-09T00:50:07.951Z,418.00
2023-04-09T00:51:08.018Z,418.00
2023-04-09T00:52:08.086Z,418.00
2023-04-09T00:53:08.109Z,418.00
2023-04-09T00:54:08.229Z,417.00
2023-04-09T00:55:08.716Z,417.00
2023-04-09T00:56:08.265Z,415.00
2023-04-09T00:57:08.400Z,415.00
2023-04-09T00:58:08.465Z,417.00
2023-04-09T00:59:08.471Z,420.00
2023-04-09T01:00:08.453Z,419.00
2023-04-09T01:01:08.552Z,419.00
2023-04-09T01:02:08.566Z,419.00
2023-04-09T01:03:08.680Z,419.00
2023-04-09T01:04:08.568Z,418.00
2023-04-09T01:05:08.776Z,417.00
2023-04-09T01:06:08.658Z,416.00
2023-04-09T01:07:08.673Z,416.00
2023-04-09T01:08:08.786Z,415.00
2023-04-09T01:09:08.757Z,416.00
2023-04-09T01:10:08.813Z,416.00
2023-04-09T01:11:08.831Z,417.00
2023-04-09T01:12:08.865Z,417.00
2023-04-09T01:13:09.029Z,418.00
2023-04-09T01:14:08.959Z,420.00
2023-04-09T01:15:08.988Z,419.00
2023-04-09T01:16:09.047Z,419.00
2023-04-09T01:17:09.057Z,419.00
2023-04-09T01:18:09.077Z,419.00
2023-04-09T01:19:09.152Z,422.00
2023-04-09T01:20:09.187Z,422.00
2023-04-09T01:21:09.266Z,422.00
2023-04-09T01:22:09.216Z,423.00
2023-04-09T01:23:09.231Z,422.00
2023-04-09T01:24:09.255Z,422.00
2023-04-09T01:25:10.238Z,420.00
2023-04-09T01:26:09.392Z,415.00
2023-04-09T01:27:09.366Z,413.00
2023-04-09T01:28:09.402Z,413.00
2023-04-09T01:29:09.388Z,413.00
2023-04-09T01:30:09.483Z,414.00
2023-04-09T01:31:09.488Z,414.00
2023-04-09T01:32:09.442Z,415.00
2023-04-09T01:33:09.497Z,416.00
2023-04-09T01:34:09.667Z,416.00
2023-04-09T01:35:09.533Z,416.00
2023-04-09T01:36:09.676Z,415.00
2023-04-09T01:37:09.590Z,414.00
2023-04-09T01:38:09.538Z,417.00
2023-04-09T01:39:10.232Z,417.00
2023-04-09T01:40:09.669Z,418.00
2023-04-09T01:41:09.616Z,420.00
2023-04-09T01:42:09.659Z,419.00
2023-04-09T01:43:09.643Z,420.00
2023-04-09T01:44:09.752Z,420.00
2023-04-09T01:45:09.727Z,419.00
2023-04-09T01:46:10.272Z,419.00
2023-04-09T01:47:09.705Z,414.00
2023-04-09T01:48:09.726Z,413.00
2023-04-09T01:49:09.743Z,414.00
2023-04-09T01:50:09.804Z,414.00
2023-04-09T01:51:09.766Z,415.00
2023-04-09T01:52:09.792Z,414.00
2023-04-09T01:53:09.787Z,414.00
2023-04-09T01:54:09.840Z,414.00
2023-04-09T01:55:09.851Z,417.00
2023-04-09T01:56:09.888Z,420.00
2023-04-09T01:57:09.891Z,421.00
2023-04-09T01:58:09.925Z,420.00
2023-04-09T01:59:09.986Z,422.00
2023-04-09T02:00:10.282Z,422.00
2023-04-09T02:01:10.012Z,418.00
2023-04-09T02:02:10.207Z,415.00
2023-04-09T02:03:10.112Z,417.00
2023-04-09T02:04:10.179Z,419.00
2023-04-09T02:05:10.047Z,417.00
2023-04-09T02:06:10.080Z,415.00
2023-04-09T02:07:10.156Z,415.00
2023-04-09T02:08:10.152Z,417.00
2023-04-09T02:09:10.168Z,415.00
2023-04-09T02:10:10.140Z,415.00
2023-04-09T02:11:10.221Z,415.00
2023-04-09T02:12:10.147Z,415.00
2023-04-09T02:13:10.165Z,417.00
2023-04-09T02:14:10.229Z,418.00
2023-04-09T02:15:10.337Z,420.00
2023-04-09T02:16:10.245Z,419.00
2023-04-09T02:17:10.220Z,419.00
2023-04-09T02:18:10.267Z,420.00
2023-04-09T02:19:10.810Z,421.00
2023-04-09T02:20:10.267Z,421.00
2023-04-09T02:21:10.257Z,419.00
2023-04-09T02:22:10.314Z,419.00
2023-04-09T02:23:11.251Z,418.00
2023-04-09T02:24:10.344Z,419.00
2023-04-09T02:25:10.321Z,422.00
2023-04-09T02:26:10.292Z,422.00
2023-04-09T02:27:10.301Z,420.00
2023-04-09T02:28:10.424Z,421.00
2023-04-09T02:29:10.353Z,421.00
2023-04-09T02:30:10.326Z,419.00
2023-04-09T02:31:10.383Z,420.00
2023-04-09T02:32:10.500Z,420.00
2023-04-09T02:33:10.325Z,419.00
2023-04-09T02:34:10.329Z,420.00
2023-04-09T02:35:10.336Z,421.00
2023-04-09T02:36:10.381Z,420.00
2023-04-09T02:37:10.336Z,420.00
2023-04-09T02:38:11.265Z,420.00
2023-04-09T02:39:10.379Z,420.00
2023-04-09T02:40:10.379Z,419.00
2023-04-09T02:41:10.413Z,418.00
2023-04-09T02:42:10.415Z,418.00
2023-04-09T02:43:10.396Z,416.00
2023-04-09T02:44:10.412Z,416.00
2023-04-09T02:45:10.544Z,416.00
2023-04-09T02:46:10.449Z,416.00
2023-04-09T02:47:10.488Z,414.00
2023-04-09T02:48:10.519Z,415.00
2023-04-09T02:49:10.467Z,416.00
2023-04-09T02:50:10.509Z,420.00
2023-04-09T02:51:10.527Z,418.00
2023-04-09T02:52:10.484Z,419.00
2023-04-09T02:53:10.532Z,419.00
2023-04-09T02:54:10.538Z,418.00
2023-04-09T02:55:10.517Z,419.00
2023-04-09T02:56:10.505Z,420.00
2023-04-09T02:57:10.573Z,420.00
2023-04-09T02:58:10.544Z,421.00
2023-04-09T02:59:10.538Z,421.00
2023-04-09T03:00:10.599Z,420.00
2023-04-09T03:01:10.534Z,420.00
2023-04-09T03:02:10.629Z,419.00
2023-04-09T03:03:10.884Z,420.00
2023-04-09T03:04:10.893Z,423.00
2023-04-09T03:05:10.518Z,422.00
2023-04-09T03:06:10.508Z,421.00
2023-04-09T03:07:10.518Z,423.00
2023-04-09T03:08:10.523Z,423.00
2023-04-09T03:09:10.554Z,424.00
2023-04-09T03:10:10.525Z,424.00
2023-04-09T03:11:10.528Z,425.00
2023-04-09T03:12:10.580Z,423.00
2023-04-09T03:13:10.544Z,422.00
2023-04-09T03:14:10.596Z,422.00
2023-04-09T03:15:10.564Z,419.00
2023-04-09T03:16:10.662Z,417.00
2023-04-09T03:17:10.600Z,416.00
2023-04-09T03:18:10.676Z,415.00
2023-04-09T03:19:10.623Z,413.00
2023-04-09T03:20:10.592Z,414.00
2023-04-09T03:21:12.853Z,411.00
2023-04-09T03:22:10.599Z,412.00
2023-04-09T03:23:10.656Z,412.00
2023-04-09T03:24:10.563Z,414.00
2023-04-09T03:25:10.623Z,415.00
2023-04-09T03:26:10.551Z,416.00
2023-04-09T03:27:10.607Z,416.00
2023-04-09T03:28:10.514Z,418.00
2023-04-09T03:29:10.522Z,419.00
2023-04-09T03:30:10.565Z,419.00
2023-04-09T03:31:10.613Z,419.00
2023-04-09T03:32:11.387Z,418.00
2023-04-09T03:33:10.512Z,416.00
2023-04-09T03:34:10.621Z,415.00
2023-04-09T03:35:10.587Z,414.00
2023-04-09T03:36:10.585Z,414.00
2023-04-09T03:37:10.526Z,415.00
2023-04-09T03:38:10.472Z,415.00
2023-04-09T03:39:10.483Z,419.00
2023-04-09T03:40:10.523Z,421.00
2023-04-09T03:41:10.540Z,420.00
2023-04-09T03:42:10.462Z,421.00
2023-04-09T03:43:10.438Z,421.00
2023-04-09T03:44:10.493Z,419.00
2023-04-09T03:45:10.591Z,415.00
2023-04-09T03:46:10.483Z,414.00
2023-04-09T03:47:10.501Z,411.00
2023-04-09T03:48:10.404Z,410.00
2023-04-09T03:49:11.368Z,408.00
2023-04-09T03:50:10.412Z,406.00
2023-04-09T03:51:10.406Z,407.00
2023-04-09T03:52:11.319Z,410.00
2023-04-09T03:53:10.399Z,412.00
2023-04-09T03:54:10.789Z,413.00
2023-04-09T03:55:10.354Z,413.00
2023-04-09T03:56:11.322Z,410.00
2023-04-09T03:57:10.378Z,409.00
2023-04-09T03:58:10.347Z,411.00
2023-04-09T03:59:10.369Z,411.00
2023-04-09T04:00:10.372Z,415.00
2023-04-09T04:01:10.341Z,418.00
2023-04-09T04:02:10.441Z,419.00
2023-04-09T04:03:10.376Z,418.00
2023-04-09T04:04:12.885Z,417.00
2023-04-09T04:05:10.341Z,415.00
2023-04-09T04:06:10.316Z,417.00
2023-04-09T04:07:10.278Z,415.00
2023-04-09T04:08:10.276Z,414.00
2023-04-09T04:09:10.332Z,411.00
2023-04-09T04:10:10.270Z,411.00
2023-04-09T04:11:10.265Z,411.00
2023-04-09T04:12:10.306Z,412.00
2023-04-09T04:13:10.331Z,414.00
2023-04-09T04:14:10.231Z,415.00
2023-04-09T04:15:10.207Z,416.00
2023-04-09T04:16:42.625Z,409.00
2023-04-09T04:17:42.282Z,406.00
2023-04-09T04:18:42.279Z,405.00
2023-04-09T04:19:42.276Z,405.00
2023-04-09T04:20:43.077Z,405.00
2023-04-09T04:21:42.226Z,406.00
2023-04-09T04:22:42.199Z,404.00
2023-04-09T04:23:42.936Z,404.00
2023-04-09T04:24:42.230Z,404.00
2023-04-09T04:25:42.255Z,405.00
2023-04-09T04:26:42.179Z,404.00
2023-04-09T04:27:42.183Z,404.00
2023-04-09T04:28:42.206Z,405.00
2023-04-09T04:29:42.166Z,406.00
2023-04-09T04:30:42.262Z,407.00
2023-04-09T04:31:42.132Z,409.00
2023-04-09T04:32:42.254Z,409.00
2023-04-09T04:33:42.153Z,408.00
2023-04-09T04:34:42.214Z,406.00
2023-04-09T04:35:42.175Z,402.00
2023-04-09T04:36:42.455Z,402.00
2023-04-09T04:37:42.156Z,400.00
2023-04-09T04:38:42.181Z,400.00
2023-04-09T04:39:42.119Z,402.00
2023-04-09T04:40:42.132Z,402.00
2023-04-09T04:41:42.189Z,403.00
2023-04-09T04:42:42.102Z,405.00
2023-04-09T04:43:42.071Z,404.00
2023-04-09T04:44:42.101Z,404.00
2023-04-09T04:45:42.074Z,405.00
2023-04-09T04:46:42.060Z,404.00
2023-04-09T04:47:42.101Z,403.00
2023-04-09T04:48:42.063Z,400.00
2023-04-09T04:49:42.133Z,399.00
2023-04-09T04:50:42.116Z,397.00
2023-04-09T04:51:42.005Z,394.00
2023-04-09T04:52:42.035Z,394.00
2023-04-09T04:53:42.041Z,395.00
2023-04-09T04:54:42.013Z,395.00
2023-04-09T04:55:41.979Z,395.00
2023-04-09T04:56:41.988Z,394.00
2023-04-09T04:57:42.020Z,396.00
2023-04-09T04:58:42.950Z,395.00
2023-04-09T04:59:41.948Z,397.00
2023-04-09T05:00:41.988Z,398.00
2023-04-09T05:01:41.984Z,399.00
2023-04-09T05:02:42.250Z,400.00
2023-04-09T05:03:42.068Z,401.00
2023-04-09T05:04:41.932Z,402.00
2023-04-09T05:05:41.907Z,402.00
2023-04-09T05:06:41.919Z,401.00
2023-04-09T05:07:41.894Z,401.00
2023-04-09T05:08:41.918Z,402.00
2023-04-09T05:09:41.973Z,401.00
2023-04-09T05:10:41.857Z,399.00
2023-04-09T05:11:41.925Z,397.00
2023-04-09T05:12:41.892Z,398.00
2023-04-09T05:13:41.861Z,401.00
2023-04-09T05:14:41.870Z,398.00
2023-04-09T05:15:41.858Z,398.00
2023-04-09T05:16:41.892Z,401.00
2023-04-09T05:17:41.834Z,403.00
2023-04-09T05:18:41.856Z,404.00
2023-04-09T05:19:42.436Z,402.00
2023-04-09T05:20:41.833Z,397.00
2023-04-09T05:21:41.846Z,398.00
2023-04-09T05:22:41.813Z,400.00
2023-04-09T05:23:41.810Z,402.00
2023-04-09T05:24:42.015Z,404.00
2023-04-09T05:25:41.828Z,404.00
2023-04-09T05:26:41.784Z,403.00
2023-04-09T05:27:41.757Z,405.00
2023-04-09T05:28:44.482Z,407.00
2023-04-09T05:29:41.749Z,409.00
2023-04-09T05:30:41.752Z,409.00
2023-04-09T05:31:41.754Z,408.00
2023-04-09T05:32:41.801Z,406.00
2023-04-09T05:33:41.740Z,405.00
2023-04-09T05:34:41.798Z,406.00
2023-04-09T05:35:41.781Z,404.00
2023-04-09T05:36:41.732Z,406.00
2023-04-09T05:37:41.713Z,404.00
2023-04-09T05:38:41.672Z,403.00
2023-04-09T05:39:41.705Z,405.00
2023-04-09T05:40:41.670Z,404.00
2023-04-09T05:41:41.669Z,405.00
2023-04-09T05:42:41.675Z,407.00
2023-04-09T05:43:41.634Z,407.00
2023-04-09T05:44:41.674Z,407.00
2023-04-09T05:45:41.819Z,406.00
2023-04-09T05:46:41.638Z,409.00
2023-04-09T05:47:41.718Z,414.00
2023-04-09T05:48:41.587Z,412.00
2023-04-09T05:49:41.632Z,411.00
2023-04-09T05:50:54.099Z,413.00
2023-04-09T05:51:42.681Z,415.00
2023-04-09T05:52:41.689Z,414.00
2023-04-09T05:53:41.659Z,413.00
2023-04-09T05:54:41.584Z,414.00
2023-04-09T05:55:41.566Z,414.00
2023-04-09T05:56:41.529Z,415.00
2023-04-09T05:57:42.514Z,417.00
2023-04-09T05:58:41.558Z,415.00
2023-04-09T05:59:41.538Z,415.00
2023-04-09T06:00:41.563Z,417.00
2023-04-09T06:01:41.536Z,415.00
2023-04-09T06:02:41.617Z,413.00
2023-04-09T06:03:41.621Z,415.00
2023-04-09T06:04:41.572Z,414.00
2023-04-09T06:05:41.486Z,411.00
2023-04-09T06:06:41.513Z,409.00
2023-04-09T06:07:41.536Z,409.00
2023-04-09T06:08:41.519Z,414.00
2023-04-09T06:09:41.469Z,414.00
2023-04-09T06:10:41.644Z,415.00
2023-04-09T06:11:41.475Z,417.00
2023-04-09T06:12:41.493Z,414.00
2023-04-09T06:13:41.514Z,412.00
2023-04-09T06:14:41.432Z,410.00
2023-04-09T06:15:41.514Z,410.00
2023-04-09T06:16:41.421Z,412.00
2023-04-09T06:17:41.476Z,411.00
2023-04-09T06:18:41.398Z,413.00
2023-04-09T06:19:41.423Z,412.00
2023-04-09T06:20:41.435Z,414.00
2023-04-09T06:21:41.400Z,417.00
2023-04-09T06:22:41.432Z,418.00
2023-04-09T06:23:41.392Z,417.00
2023-04-09T06:24:41.407Z,417.00
2023-04-09T06:25:41.376Z,419.00
2023-04-09T06:26:41.448Z,418.00
2023-04-09T06:27:41.376Z,418.00
2023-04-09T06:28:41.367Z,419.00
2023-04-09T06:29:41.551Z,421.00
2023-04-09T06:30:41.357Z,422.00
2023-04-09T06:31:41.373Z,419.00
2023-04-09T06:32:51.317Z,420.00
2023-04-09T06:33:42.298Z,417.00
2023-04-09T06:34:41.313Z,414.00
2023-04-09T06:35:41.341Z,416.00
2023-04-09T06:36:41.329Z,418.00
2023-04-09T06:37:41.402Z,418.00
2023-04-09T06:38:41.285Z,419.00
2023-04-09T06:39:47.611Z,420.00
2023-04-09T06:40:44.051Z,417.00
2023-04-09T06:41:41.265Z,418.00
2023-04-09T06:42:41.247Z,415.00
2023-04-09T06:43:41.320Z,415.00
2023-04-09T06:44:41.279Z,412.00
2023-04-09T06:45:42.078Z,411.00
2023-04-09T06:46:41.270Z,413.00
2023-04-09T06:47:41.239Z,414.00
2023-04-09T06:48:41.232Z,414.00
2023-04-09T06:49:41.303Z,414.00
2023-04-09T06:50:41.202Z,413.00
2023-04-09T06:51:41.171Z,413.00
2023-04-09T06:52:41.154Z,414.00
2023-04-09T06:53:41.234Z,415.00
2023-04-09T06:54:41.178Z,417.00
2023-04-09T06:55:41.180Z,419.00
2023-04-09T06:56:41.120Z,420.00
2023-04-09T06:57:41.983Z,419.00
2023-04-09T06:58:41.143Z,417.00
2023-04-09T06:59:41.151Z,416.00
2023-04-09T07:00:41.169Z,413.00
2023-04-09T07:01:42.112Z,413.00
2023-04-09T07:02:41.362Z,411.00
2023-04-09T07:03:41.287Z,413.00
2023-04-09T07:04:41.171Z,413.00
2023-04-09T07:05:41.198Z,414.00
2023-04-09T07:06:41.176Z,415.00
2023-04-09T07:07:41.097Z,416.00
2023-04-09T07:08:41.066Z,418.00
2023-04-09T07:09:41.593Z,417.00
2023-04-09T07:10:41.069Z,414.00
2023-04-09T07:11:41.035Z,414.00
2023-04-09T07:12:41.102Z,415.00
2023-04-09T07:13:41.073Z,416.00
2023-04-09T07:14:42.045Z,416.00
2023-04-09T07:15:42.521Z,415.00
2023-04-09T07:16:41.059Z,418.00
2023-04-09T07:17:41.061Z,419.00
2023-04-09T07:18:41.560Z,420.00
2023-04-09T07:19:40.996Z,421.00
2023-04-09T07:20:40.979Z,419.00
2023-04-09T07:21:40.997Z,418.00
2023-04-09T07:22:40.967Z,418.00
2023-04-09T07:23:40.930Z,417.00
2023-04-09T07:24:40.952Z,416.00
2023-04-09T07:25:40.968Z,416.00
2023-04-09T07:26:41.664Z,415.00
2023-04-09T07:27:40.910Z,415.00
2023-04-09T07:28:41.107Z,413.00
2023-04-09T07:29:40.889Z,412.00
2023-04-09T07:30:40.959Z,411.00
2023-04-09T07:31:40.906Z,411.00
2023-04-09T07:32:40.906Z,409.00
2023-04-09T07:33:41.580Z,410.00
2023-04-09T07:34:40.891Z,411.00
2023-04-09T07:35:40.928Z,410.00
2023-04-09T07:36:40.862Z,408.00
2023-04-09T07:37:40.820Z,412.00
2023-04-09T07:38:40.854Z,410.00
2023-04-09T07:39:40.816Z,411.00
2023-04-09T07:40:40.878Z,412.00
2023-04-09T07:41:40.835Z,414.00
2023-04-09T07:42:40.833Z,417.00
2023-04-09T07:43:40.862Z,415.00
2023-04-09T07:44:40.820Z,415.00
2023-04-09T07:45:40.783Z,416.00
2023-04-09T07:46:40.932Z,417.00
2023-04-09T07:47:40.890Z,419.00
2023-04-09T07:48:42.062Z,416.00
2023-04-09T07:49:41.526Z,417.00
2023-04-09T07:50:40.778Z,416.00
2023-04-09T07:51:40.753Z,417.00
2023-04-09T07:52:40.777Z,417.00
2023-04-09T07:53:40.727Z,418.00
2023-04-09T07:54:40.757Z,418.00
2023-04-09T07:55:40.735Z,416.00
2023-04-09T07:56:40.747Z,416.00
2023-04-09T07:57:40.739Z,413.00
2023-04-09T07:58:40.696Z,414.00
2023-04-09T07:59:40.740Z,413.00
2023-04-09T08:00:40.757Z,412.00
2023-04-09T08:01:40.763Z,410.00
2023-04-09T08:02:40.782Z,411.00
2023-04-09T08:03:40.844Z,412.00
2023-04-09T08:04:40.767Z,412.00
2023-04-09T08:05:40.711Z,415.00
2023-04-09T08:06:40.669Z,415.00
2023-04-09T08:07:40.638Z,414.00
2023-04-09T08:08:40.598Z,412.00
2023-04-09T08:09:40.651Z,410.00
2023-04-09T08:10:40.588Z,412.00
2023-04-09T08:11:40.603Z,413.00
2023-04-09T08:12:40.592Z,414.00
2023-04-09T08:13:40.647Z,413.00
2023-04-09T08:14:40.585Z,415.00
2023-04-09T08:15:40.574Z,417.00
2023-04-09T08:16:40.625Z,417.00
2023-04-09T08:17:40.628Z,417.00
2023-04-09T08:18:40.635Z,415.00
2023-04-09T08:19:41.935Z,414.00
2023-04-09T08:20:40.780Z,412.00
2023-04-09T08:21:40.828Z,409.00
2023-04-09T08:22:40.943Z,409.00
2023-04-09T08:23:40.935Z,410.00
2023-04-09T08:24:41.008Z,410.00
2023-04-09T08:25:41.117Z,409.00
2023-04-09T08:26:41.155Z,409.00
2023-04-09T08:27:41.324Z,411.00
2023-04-09T08:28:41.274Z,411.00
2023-04-09T08:29:41.326Z,414.00
2023-04-09T08:30:41.388Z,410.00
2023-04-09T08:31:41.578Z,410.00
2023-04-09T08:32:41.569Z,409.00
2023-04-09T08:33:41.604Z,409.00
2023-04-09T08:34:41.662Z,408.00
2023-04-09T08:35:41.711Z,410.00
2023-04-09T08:36:41.852Z,409.00
2023-04-09T08:37:41.890Z,409.00
2023-04-09T08:38:41.845Z,411.00
2023-04-09T08:39:41.883Z,413.00
2023-04-09T08:40:41.947Z,412.00
2023-04-09T08:41:41.964Z,412.00
2023-04-09T08:42:42.085Z,412.00
2023-04-09T08:43:56.968Z,411.00
2023-04-09T08:44:43.123Z,407.00
2023-04-09T08:45:42.171Z,407.00
2023-04-09T08:46:42.084Z,411.00
2023-04-09T08:47:42.193Z,409.00
2023-04-09T08:48:42.125Z,412.00
2023-04-09T08:49:42.040Z,412.00
2023-04-09T08:50:42.010Z,412.00
2023-04-09T08:51:42.050Z,412.00
2023-04-09T08:52:42.017Z,411.00
2023-04-09T08:53:42.042Z,409.00
2023-04-09T08:54:42.153Z,410.00
2023-04-09T08:55:42.111Z,409.00
2023-04-09T08:56:42.110Z,412.00
2023-04-09T08:57:42.306Z,412.00
2023-04-09T08:58:42.228Z,414.00
2023-04-09T08:59:42.261Z,417.00
2023-04-09T09:00:42.249Z,416.00
2023-04-09T09:01:42.404Z,416.00
2023-04-09T09:02:42.370Z,418.00
2023-04-09T09:03:43.105Z,417.00
2023-04-09T09:04:42.441Z,412.00
2023-04-09T09:05:42.429Z,412.00
2023-04-09T09:06:42.513Z,412.00
2023-04-09T09:07:42.507Z,413.00
2023-04-09T09:08:42.517Z,412.00
2023-04-09T09:09:42.540Z,412.00
2023-04-09T09:10:42.533Z,413.00
2023-04-09T09:11:42.581Z,413.00
2023-04-09T09:12:42.625Z,414.00
2023-04-09T09:13:42.649Z,415.00
2023-04-09T09:14:42.647Z,416.00
2023-04-09T09:15:42.657Z,416.00
2023-04-09T09:16:42.744Z,415.00
2023-04-09T09:17:42.761Z,415.00
2023-04-09T09:18:42.769Z,416.00
2023-04-09T09:19:42.797Z,414.00
2023-04-09T09:20:42.802Z,414.00
2023-04-09T09:21:42.804Z,412.00
2023-04-09T09:22:42.884Z,412.00
2023-04-09T09:23:42.970Z,407.00
2023-04-09T09:24:42.938Z,407.00
2023-04-09T09:25:42.935Z,407.00
2023-04-09T09:26:43.039Z,408.00
2023-04-09T09:27:43.054Z,408.00
2023-04-09T09:28:42.992Z,409.00
2023-04-09T09:29:43.065Z,409.00
2023-04-09T09:30:43.168Z,407.00
2023-04-09T09:31:43.069Z,409.00
2023-04-09T09:32:43.131Z,408.00
2023-04-09T09:33:43.143Z,407.00
2023-04-09T09:34:43.160Z,407.00
2023-04-09T09:35:43.199Z,407.00
2023-04-09T09:36:43.188Z,406.00
2023-04-09T09:37:43.266Z,408.00
2023-04-09T09:38:44.056Z,409.00
2023-04-09T09:39:43.459Z,411.00
2023-04-09T09:40:43.270Z,409.00
2023-04-09T09:41:43.286Z,408.00
2023-04-09T09:42:43.413Z,408.00
2023-04-09T09:43:43.382Z,410.00
2023-04-09T09:44:43.454Z,412.00
2023-04-09T09:45:43.482Z,408.00
2023-04-09T09:46:43.531Z,409.00
2023-04-09T09:47:43.489Z,412.00
2023-04-09T09:48:43.464Z,409.00
2023-04-09T09:49:43.487Z,409.00
2023-04-09T09:50:44.628Z,408.00
2023-04-09T09:51:43.577Z,405.00
2023-04-09T09:52:43.601Z,405.00
2023-04-09T09:53:43.619Z,404.00
2023-04-09T09:54:43.651Z,406.00
2023-04-09T09:55:43.672Z,406.00
2023-04-09T09:56:43.631Z,406.00
2023-04-09T09:57:43.655Z,407.00
2023-04-09T09:58:43.650Z,406.00
2023-04-09T09:59:44.601Z,407.00
2023-04-09T10:00:43.712Z,405.00
2023-04-09T10:01:44.886Z,406.00
2023-04-09T10:02:44.666Z,405.00
2023-04-09T10:03:43.698Z,409.00
2023-04-09T10:04:43.781Z,408.00
2023-04-09T10:05:43.687Z,407.00
2023-04-09T10:06:43.761Z,406.00
2023-04-09T10:07:44.590Z,403.00
2023-04-09T10:08:43.750Z,403.00
2023-04-09T10:09:43.716Z,403.00
2023-04-09T10:10:43.735Z,401.00
2023-04-09T10:11:43.776Z,398.00
2023-04-09T10:12:43.778Z,398.00
2023-04-09T10:13:43.733Z,397.00
2023-04-09T10:14:43.758Z,398.00
2023-04-09T10:15:43.875Z,398.00
2023-04-09T10:16:43.739Z,398.00
2023-04-09T10:17:43.778Z,399.00
2023-04-09T10:18:43.882Z,399.00
2023-04-09T10:19:43.907Z,395.00
2023-04-09T10:20:43.965Z,396.00
2023-04-09T10:21:44.027Z,397.00
2023-04-09T10:22:43.997Z,397.00
2023-04-09T10:23:44.027Z,397.00
2023-04-09T10:24:44.212Z,400.00
2023-04-09T10:25:44.054Z,401.00
2023-04-09T10:26:44.074Z,400.00
2023-04-09T10:27:44.146Z,398.00
2023-04-09T10:28:44.226Z,398.00
2023-04-09T10:29:44.670Z,398.00
2023-04-09T10:30:44.365Z,397.00
2023-04-09T10:31:44.412Z,396.00
2023-04-09T10:32:44.500Z,397.00
2023-04-09T10:33:44.505Z,398.00
2023-04-09T10:34:44.585Z,398.00
2023-04-09T10:35:44.665Z,399.00
2023-04-09T10:36:44.777Z,402.00
2023-04-09T10:37:44.757Z,403.00
2023-04-09T10:38:44.875Z,401.00
2023-04-09T10:39:44.823Z,400.00
2023-04-09T10:40:44.952Z,402.00
2023-04-09T10:41:44.923Z,404.00
2023-04-09T10:42:45.011Z,407.00
2023-04-09T10:43:45.165Z,407.00
2023-04-09T10:44:45.126Z,407.00
2023-04-09T10:45:45.245Z,407.00
2023-04-09T10:46:45.299Z,407.00
2023-04-09T10:47:47.111Z,405.00
2023-04-09T10:48:45.365Z,401.00
2023-04-09T10:49:45.476Z,402.00
2023-04-09T10:50:45.494Z,406.00
2023-04-09T10:51:45.567Z,408.00
2023-04-09T10:52:45.657Z,408.00
2023-04-09T10:53:45.711Z,406.00
2023-04-09T10:54:45.783Z,407.00
2023-04-09T10:55:45.813Z,407.00
2023-04-09T10:56:46.029Z,407.00
2023-04-09T10:57:45.922Z,406.00
2023-04-09T10:58:46.017Z,405.00
2023-04-09T10:59:46.069Z,402.00
2023-04-09T11:00:47.121Z,403.00
2023-04-09T11:01:46.228Z,403.00
2023-04-09T11:02:46.363Z,403.00
2023-04-09T11:03:46.308Z,404.00
2023-04-09T11:04:46.433Z,404.00
2023-04-09T11:05:46.498Z,402.00
2023-04-09T11:06:46.505Z,402.00
2023-04-09T11:07:46.586Z,403.00
2023-04-09T11:08:46.623Z,405.00
2023-04-09T11:09:46.622Z,406.00
2023-04-09T11:10:46.692Z,406.00
2023-04-09T11:11:46.761Z,406.00
2023-04-09T11:12:46.789Z,408.00
2023-04-09T11:13:46.899Z,409.00
2023-04-09T11:14:46.967Z,407.00
2023-04-09T11:15:47.042Z,406.00
2023-04-09T11:16:47.122Z,407.00
2023-04-09T11:17:47.208Z,406.00
2023-04-09T11:18:47.256Z,405.00
2023-04-09T11:19:47.212Z,402.00
2023-04-09T11:20:47.281Z,402.00
2023-04-09T11:21:48.126Z,402.00
2023-04-09T11:22:47.389Z,403.00
2023-04-09T11:23:47.386Z,402.00
2023-04-09T11:24:47.362Z,399.00
2023-04-09T11:25:47.434Z,400.00
2023-04-09T11:26:47.493Z,400.00
2023-04-09T11:27:47.487Z,402.00
2023-04-09T11:28:47.492Z,401.00
2023-04-09T11:29:47.598Z,402.00
2023-04-09T11:30:47.670Z,401.00
2023-04-09T11:31:47.704Z,400.00
2023-04-09T11:32:47.709Z,404.00
2023-04-09T11:33:47.725Z,404.00
2023-04-09T11:34:47.724Z,403.00
2023-04-09T11:35:47.744Z,401.00
2023-04-09T11:36:47.787Z,401.00
2023-04-09T11:37:47.862Z,401.00
2023-04-09T11:38:47.920Z,402.00
2023-04-09T11:39:47.916Z,402.00
2023-04-09T11:40:48.073Z,399.00
2023-04-09T11:41:47.903Z,402.00
2023-04-09T11:42:47.857Z,403.00
2023-04-09T11:43:47.884Z,405.00
2023-04-09T11:44:47.856Z,404.00
2023-04-09T11:45:47.908Z,403.00
2023-04-09T11:46:47.986Z,400.00
2023-04-09T11:47:48.115Z,398.00
2023-04-09T11:48:48.027Z,395.00
2023-04-09T11:49:48.066Z,394.00
2023-04-09T11:50:48.092Z,394.00
2023-04-09T11:51:48.075Z,391.00
2023-04-09T11:52:48.110Z,392.00
2023-04-09T11:53:48.132Z,393.00
2023-04-09T11:54:48.310Z,394.00
2023-04-09T11:55:48.318Z,396.00
2023-04-09T11:56:48.345Z,396.00
2023-04-09T11:57:48.474Z,396.00
2023-04-09T11:58:48.522Z,395.00
2023-04-09T11:59:48.598Z,397.00
2023-04-09T12:00:48.463Z,400.00
2023-04-09T12:01:48.597Z,399.00
2023-04-09T12:02:48.859Z,396.00
2023-04-09T12:03:48.832Z,395.00
2023-04-09T12:04:48.637Z,393.00
2023-04-09T12:05:51.012Z,390.00
2023-04-09T12:06:48.626Z,392.00
2023-04-09T12:07:55.566Z,390.00
2023-04-09T12:08:49.715Z,393.00
2023-04-09T12:09:48.658Z,393.00
2023-04-09T12:10:48.608Z,394.00
2023-04-09T12:11:48.616Z,393.00
2023-04-09T12:12:48.643Z,395.00
2023-04-09T12:13:48.555Z,394.00
2023-04-09T12:14:48.578Z,392.00
2023-04-09T12:15:48.542Z,392.00
2023-04-09T12:16:48.576Z,392.00
2023-04-09T12:17:48.658Z,393.00
2023-04-09T12:18:48.545Z,392.00
2023-04-09T12:19:48.518Z,391.00
2023-04-09T12:20:48.597Z,391.00
2023-04-09T12:21:48.666Z,388.00
2023-04-09T12:22:48.670Z,385.00
2023-04-09T12:23:48.693Z,386.00
2023-04-09T12:24:48.684Z,387.00
2023-04-09T12:25:48.683Z,388.00
2023-04-09T12:26:48.699Z,388.00
2023-04-09T12:27:48.827Z,392.00
2023-04-09T12:28:48.945Z,393.00